Heroic Leader — C6ZD2 — position and weather

sailwx.info

Track history (hours):
 
Tides and Currents Weather Stations Pressure Air Temp Water Temp Dewpoint Dewpoint Depression Visibility Wind Speed Wind Dir Waves Ship Positions

Heroic Leader

Last reported at 2017-Aug-21 08:29 UTC. Time now 2017-Aug-21 08:30 UTC.
Position N 51°16' E 004°14'.

Length 200 m; draft 9 m.

Type: Cargo ship. MMSI: 311052700.

Date/timePositionNaut miles runAvg speedWind from/ knotsBaromVisibWave heightAir tempDewpointWater temp
2017-Aug-21 08:29N 51°16' E 004°14'0 0.0
2017-Aug-21 07:59N 51°16' E 004°14'0 0.0
2017-Aug-21 07:30N 51°16' E 004°14'0 0.5
2017-Aug-21 07:00N 51°16' E 004°15'1 2.6
2017-Aug-21 06:31N 51°16' E 004°17'0 0.0
2017-Aug-21 06:01N 51°16' E 004°17'0 0.3
2017-Aug-21 05:31N 51°16' E 004°17'2 3.1
2017-Aug-21 05:00N 51°17' E 004°19'3 6.1
2017-Aug-21 04:30N 51°19' E 004°16'5 9.5
2017-Aug-21 04:00N 51°23' E 004°13'510.2
2017-Aug-21 03:30N 51°22' E 004°05'510.1
2017-Aug-21 03:00N 51°26' E 003°60'611.7
2017-Aug-21 02:30N 51°22' E 003°54'611.7
2017-Aug-21 02:00N 51°22' E 003°45'611.6
2017-Aug-21 01:30N 51°26' E 003°38'5 9.5
2017-Aug-21 01:01N 51°25' E 003°31'815.8
2017-Aug-21 00:31N 51°24' E 003°18'816.5
2017-Aug-21 00:00N 51°24' E 003°05'816.2
2017-Aug-20 23:30N 51°22' E 002°53'612.4
2017-Aug-20 23:01N 51°24' E 002°43'5 8.4
2017-Aug-20 22:28N 51°28' E 002°40'0 0.1
2017-Aug-20 21:58N 51°28' E 002°40'0 0.1
2017-Aug-20 21:28N 51°28' E 002°40'0 0.1
2017-Aug-20 20:55N 51°28' E 002°40'0 0.1
2017-Aug-20 20:28N 51°28' E 002°40'0 0.1
2017-Aug-20 19:58N 51°28' E 002°40'0 0.0
2017-Aug-20 19:28N 51°28' E 002°40'0 0.1
2017-Aug-20 18:58N 51°28' E 002°40'0 0.1
2017-Aug-20 18:25N 51°28' E 002°40'0 0.1
2017-Aug-20 17:55N 51°28' E 002°40'0 0.0
2017-Aug-20 17:31N 51°28' E 002°40'0 0.1
2017-Aug-20 16:58N 51°28' E 002°40'0 0.0
2017-Aug-20 16:28N 51°28' E 002°40'0 0.0
2017-Aug-20 15:58N 51°28' E 002°40'0 0.0
2017-Aug-20 15:28N 51°28' E 002°40'0 0.0
2017-Aug-20 14:58N 51°28' E 002°40'0 0.0
2017-Aug-20 14:28N 51°28' E 002°40'0 0.0
2017-Aug-20 13:58N 51°28' E 002°40'0 0.0
2017-Aug-20 13:28N 51°28' E 002°40'0 0.0
2017-Aug-20 12:58N 51°28' E 002°40'0 0.0
2017-Aug-20 12:28N 51°28' E 002°40'0 0.0
2017-Aug-20 12:01N 51°28' E 002°40'0 0.0
2017-Aug-20 11:28N 51°28' E 002°40'0 0.0
2017-Aug-20 10:52N 51°28' E 002°40'0 0.0
2017-Aug-20 10:28N 51°28' E 002°40'0 0.3
2017-Aug-20 10:00N 51°28' E 002°40'510.7
2017-Aug-20 09:30N 51°26' E 002°32'815.4
2017-Aug-20 09:00N 51°20' E 002°24'815.7
2017-Aug-20 08:31N 51°16' E 002°14'714.9
2017-Aug-20 08:01N 51°12' E 002°03'714.3
2017-Aug-20 07:30N 51°09' E 001°53'713.5
2017-Aug-20 07:00N 51°05' E 001°44'713.3
2017-Aug-20 06:30N 50°60' E 001°37'713.0
2017-Aug-20 06:00N 50°55' E 001°31'6113.4
2017-Aug-20 01:26N 50°20' E 000°11'614.5
2017-Aug-20 01:00N 50°18' E 000°02'714.5
2017-Aug-20 00:30N 50°16' W 000°09'714.4
2017-Aug-20 00:00N 50°13' W 000°20'1714.3
2017-Aug-19 22:51N 50°07' W 000°44'514.8
2017-Aug-19 22:30N 50°05' W 000°51'815.3
2017-Aug-19 22:00N 50°01' W 001°01'815.4
2017-Aug-19 21:31N 49°57' W 001°11'815.9
2017-Aug-19 21:00N 49°53' W 001°21'816.3
2017-Aug-19 20:31N 49°48' W 001°32'714.9
2017-Aug-19 20:00N 49°45' W 001°42'510.1
2017-Aug-19 19:30N 49°47' W 001°49'816.7
2017-Aug-19 19:00N 49°52' W 001°59'918.3
2017-Aug-19 18:30N 49°54' W 002°13'2018.6
2017-Aug-19 17:26N 49°49' W 002°43'818.1
2017-Aug-19 17:00N 49°47' W 002°55'917.9
2017-Aug-19 16:29N 49°43' W 003°08'817.7
2017-Aug-19 16:01N 49°40' W 003°20'917.4
2017-Aug-19 15:30N 49°36' W 003°32'917.3
2017-Aug-19 14:59N 49°31' W 003°43'5816.8
2017-Aug-19 11:32N 49°02' W 005°00'016.1
2017-Aug-19 11:30N 49°01' W 005°01'815.8
2017-Aug-19 11:00N 48°57' W 005°11'815.6
2017-Aug-19 10:29N 48°53' W 005°22'715.8
2017-Aug-19 10:01N 48°49' W 005°31'52515.2
2017-Aug-17 23:22N 40°37' W 009°51'615.7
2017-Aug-17 23:00N 40°32' W 009°51'815.7
2017-Aug-17 22:30N 40°24' W 009°50'816.2
2017-Aug-17 22:00N 40°16' W 009°50'815.7
2017-Aug-17 21:30N 40°08' W 009°50'815.7
2017-Aug-17 21:00N 39°60' W 009°50'816.0
2017-Aug-17 20:30N 39°52' W 009°50'815.9
2017-Aug-17 20:00N 39°44' W 009°50'815.5
2017-Aug-17 19:31N 39°36' W 009°51'815.2
2017-Aug-17 19:00N 39°29' W 009°51'715.1
2017-Aug-17 18:30N 39°21' W 009°51'815.3
2017-Aug-17 18:00N 39°13' W 009°51'815.2
2017-Aug-17 17:30N 39°06' W 009°51'815.3
2017-Aug-17 17:00N 38°58' W 009°52'815.1
2017-Aug-17 16:30N 38°51' W 009°52'714.9
2017-Aug-17 16:00N 38°43' W 009°52'815.2
2017-Aug-17 15:31N 38°36' W 009°49'815.0
2017-Aug-17 15:00N 38°29' W 009°47'815.0
2017-Aug-17 14:30N 38°21' W 009°45'714.8
2017-Aug-17 14:00N 38°14' W 009°42'714.4
2017-Aug-17 13:30N 38°07' W 009°41'714.2
2017-Aug-17 13:00N 38°00' W 009°39'714.5
2017-Aug-17 12:30N 37°53' W 009°37'714.5
2017-Aug-17 12:00N 37°46' W 009°35'714.8
2017-Aug-17 11:30N 37°39' W 009°32'815.0
2017-Aug-17 10:59N 37°31' W 009°30'2315.4
2017-Aug-17 09:31N 37°09' W 009°24'115.5
2017-Aug-17 09:28N 37°08' W 009°24'815.5
2017-Aug-17 08:59N 37°01' W 009°22'815.6
2017-Aug-17 08:29N 36°53' W 009°20'715.3
2017-Aug-17 08:00N 36°47' W 009°14'1815.3
2017-Aug-17 06:49N 36°41' W 008°53'715.4
2017-Aug-17 06:21N 36°39' W 008°45'615.6
2017-Aug-17 05:59N 36°37' W 008°38'915.9
2017-Aug-17 05:26N 36°34' W 008°28'716.1
2017-Aug-17 04:59N 36°31' W 008°20'916.0
2017-Aug-17 04:26N 36°28' W 008°09'715.9
2017-Aug-17 04:00N 36°26' W 008°01'816.3
2017-Aug-17 03:29N 36°24' W 007°51'6415.7
2017-Aug-16 23:25N 36°04' W 006°36'4815.6
2017-Aug-16 20:20N 35°58' W 005°37'515.9
2017-Aug-16 20:00N 35°59' W 005°31'816.3
2017-Aug-16 19:30N 36°02' W 005°21'22215.9
2017-Aug-16 05:30N 37°17' W 000°59'816.6
2017-Aug-16 05:00N 37°22' W 000°51'816.5
2017-Aug-16 04:30N 37°27' W 000°44'816.0
2017-Aug-16 04:00N 37°33' W 000°36'815.8
2017-Aug-16 03:30N 37°39' W 000°30'816.2
2017-Aug-16 03:00N 37°46' W 000°24'916.4
2017-Aug-16 02:27N 37°53' W 000°18'716.4
2017-Aug-16 02:00N 37°59' W 000°13'1016.5
2017-Aug-16 01:24N 38°08' W 000°06'9016.2
2017-Aug-15 19:50N 39°26' E 000°52'1016.3
2017-Aug-15 19:13N 39°34' E 000°59'516.6
2017-Aug-15 18:54N 39°39' E 001°02'616.4
2017-Aug-15 18:30N 39°45' E 001°06'816.3
2017-Aug-15 17:59N 39°52' E 001°11'816.3
2017-Aug-15 17:30N 39°59' E 001°16'816.3
2017-Aug-15 17:00N 40°06' E 001°20'816.1
2017-Aug-15 16:30N 40°14' E 001°26'816.0
2017-Aug-15 16:00N 40°20' E 001°31'816.1
2017-Aug-15 15:30N 40°27' E 001°36'815.7
2017-Aug-15 15:00N 40°35' E 001°41'815.9
2017-Aug-15 14:30N 40°41' E 001°46'815.9
2017-Aug-15 14:00N 40°48' E 001°51'816.3
2017-Aug-15 13:30N 40°56' E 001°56'816.2
2017-Aug-15 13:00N 41°03' E 002°01'816.1
2017-Aug-15 12:29N 41°10' E 002°06'815.3
2017-Aug-15 11:58N 41°17' E 002°11'3 6.6
2017-Aug-15 11:28N 41°20' E 002°09'1 0.1
2017-Aug-15 06:10N 41°20' E 002°09'0 0.0
2017-Aug-15 05:52N 41°20' E 002°09'0 0.0
2017-Aug-15 05:10N 41°20' E 002°09'0 0.0
2017-Aug-15 04:04N 41°20' E 002°09'0 0.0
2017-Aug-15 03:46N 41°20' E 002°09'0 0.0
2017-Aug-15 03:22N 41°20' E 002°09'0 0.1
2017-Aug-15 02:59N 41°20' E 002°09'1 1.9
2017-Aug-15 02:30N 41°20' E 002°10'3 5.1
2017-Aug-15 01:57N 41°17' E 002°11'3 6.9
2017-Aug-15 01:30N 41°17' E 002°15'2 4.0
2017-Aug-15 01:00N 41°17' E 002°18'0 0.4
2017-Aug-15 00:30N 41°16' E 002°18'0 0.3
2017-Aug-14 23:50N 41°16' E 002°18'0 0.3
2017-Aug-14 23:21N 41°16' E 002°19'0 0.4
2017-Aug-14 22:59N 41°16' E 002°19'0 0.2
2017-Aug-14 22:22N 41°16' E 002°19'0 0.2
2017-Aug-14 22:00N 41°16' E 002°19'0 0.2
2017-Aug-14 21:30N 41°16' E 002°19'0 0.2
2017-Aug-14 20:59N 41°16' E 002°19'0 0.2
2017-Aug-14 20:30N 41°16' E 002°19'0 0.2
2017-Aug-14 20:00N 41°16' E 002°19'0 0.1
2017-Aug-14 19:30N 41°16' E 002°19'0 0.0
2017-Aug-14 19:00N 41°15' E 002°19'0 0.1
2017-Aug-14 18:30N 41°16' E 002°19'0 0.1
2017-Aug-14 18:00N 41°16' E 002°19'0 0.1
2017-Aug-14 17:30N 41°16' E 002°19'0 0.3
2017-Aug-14 17:00N 41°15' E 002°19'0 0.4
2017-Aug-14 16:30N 41°15' E 002°19'0 0.8
2017-Aug-14 15:58N 41°15' E 002°20'4 9.0
2017-Aug-14 15:30N 41°12' E 002°23'816.4
2017-Aug-14 15:00N 41°08' E 002°32'816.5
2017-Aug-14 14:30N 41°03' E 002°42'816.7
2017-Aug-14 14:00N 40°59' E 002°51'816.4
2017-Aug-14 13:30N 40°54' E 002°60'815.7
2017-Aug-14 13:00N 40°50' E 003°09'815.6
2017-Aug-14 12:30N 40°46' E 003°18'816.0
2017-Aug-14 12:00N 40°42' E 003°27'1616.0
2017-Aug-14 10:59N 40°33' E 003°45'3215.8
2017-Aug-14 08:58N 40°17' E 004°21'1616.1
2017-Aug-14 07:57N 40°10' E 004°40'1316.3
2017-Aug-14 07:07N 40°03' E 004°56'416.3
2017-Aug-14 06:54N 40°02' E 005°00'616.5
2017-Aug-14 06:30N 39°59' E 005°07'11516.5
2017-Aug-13 23:31N 39°05' E 007°19'015.5
2017-Aug-13 23:30N 39°04' E 007°19'6416.4
2017-Aug-13 19:36N 38°35' E 008°31'216.2
2017-Aug-13 19:30N 38°34' E 008°33'816.3
2017-Aug-13 18:59N 38°30' E 008°43'1516.5
2017-Aug-13 18:06N 38°23' E 008°59'116.5
2017-Aug-13 18:00N 38°22' E 009°01'816.4
2017-Aug-13 17:30N 38°18' E 009°11'23015.9
2017-Aug-13 03:01N 36°43' E 013°34'615.9
2017-Aug-13 02:38N 36°41' E 013°41'315.8
2017-Aug-13 02:28N 36°40' E 013°44'715.7
2017-Aug-13 02:00N 36°38' E 013°53'815.7
2017-Aug-13 01:30N 36°35' E 014°02'815.7
2017-Aug-13 01:00N 36°33' E 014°12'815.6
2017-Aug-13 00:30N 36°32' E 014°21'815.2
2017-Aug-13 00:00N 36°30' E 014°30'714.9
2017-Aug-12 23:30N 36°28' E 014°39'714.7
2017-Aug-12 23:00N 36°24' E 014°47'814.7
2017-Aug-12 22:30N 36°22' E 014°56'15615.7
2017-Aug-12 12:34N 35°40' E 018°02'14216.1
2017-Aug-12 03:44N 35°01' E 020°50'516.0
2017-Aug-12 03:26N 34°60' E 020°55'2215.9
2017-Aug-12 02:03N 34°54' E 021°21'115.9
2017-Aug-12 01:59N 34°54' E 021°22'  
Track history (hours):
 
Tides and Currents Weather Stations Pressure Air Temp Water Temp Dewpoint Dewpoint Depression Visibility Wind Speed Wind Dir Waves Ship Positions

Heroic Leader

Last reported at 2017-Aug-21 08:29 UTC. Time now 2017-Aug-21 08:30 UTC.
Position N 51°16' E 004°14'.

Length 200 m; draft 9 m.

Type: Cargo ship. MMSI: 311052700.

Date/timePositionNaut miles runAvg speedWind from/ knotsBaromVisibWave heightAir tempDewpointWater temp
2017-Aug-21 08:29N 51°16' E 004°14'0 0.0
2017-Aug-21 07:59N 51°16' E 004°14'0 0.0
2017-Aug-21 07:30N 51°16' E 004°14'0 0.5
2017-Aug-21 07:00N 51°16' E 004°15'1 2.6
2017-Aug-21 06:31N 51°16' E 004°17'0 0.0
2017-Aug-21 06:01N 51°16' E 004°17'0 0.3
2017-Aug-21 05:31N 51°16' E 004°17'2 3.1
2017-Aug-21 05:00N 51°17' E 004°19'3 6.1
2017-Aug-21 04:30N 51°19' E 004°16'5 9.5
2017-Aug-21 04:00N 51°23' E 004°13'510.2
2017-Aug-21 03:30N 51°22' E 004°05'510.1
2017-Aug-21 03:00N 51°26' E 003°60'611.7
2017-Aug-21 02:30N 51°22' E 003°54'611.7
2017-Aug-21 02:00N 51°22' E 003°45'611.6
2017-Aug-21 01:30N 51°26' E 003°38'5 9.5
2017-Aug-21 01:01N 51°25' E 003°31'815.8
2017-Aug-21 00:31N 51°24' E 003°18'816.5
2017-Aug-21 00:00N 51°24' E 003°05'816.2
2017-Aug-20 23:30N 51°22' E 002°53'612.4
2017-Aug-20 23:01N 51°24' E 002°43'5 8.4
2017-Aug-20 22:28N 51°28' E 002°40'0 0.1
2017-Aug-20 21:58N 51°28' E 002°40'0 0.1
2017-Aug-20 21:28N 51°28' E 002°40'0 0.1
2017-Aug-20 20:55N 51°28' E 002°40'0 0.1
2017-Aug-20 20:28N 51°28' E 002°40'0 0.1
2017-Aug-20 19:58N 51°28' E 002°40'0 0.0
2017-Aug-20 19:28N 51°28' E 002°40'0 0.1
2017-Aug-20 18:58N 51°28' E 002°40'0 0.1
2017-Aug-20 18:25N 51°28' E 002°40'0 0.1
2017-Aug-20 17:55N 51°28' E 002°40'0 0.0
2017-Aug-20 17:31N 51°28' E 002°40'0 0.1
2017-Aug-20 16:58N 51°28' E 002°40'0 0.0
2017-Aug-20 16:28N 51°28' E 002°40'0 0.0
2017-Aug-20 15:58N 51°28' E 002°40'0 0.0
2017-Aug-20 15:28N 51°28' E 002°40'0 0.0
2017-Aug-20 14:58N 51°28' E 002°40'0 0.0
2017-Aug-20 14:28N 51°28' E 002°40'0 0.0
2017-Aug-20 13:58N 51°28' E 002°40'0 0.0
2017-Aug-20 13:28N 51°28' E 002°40'0 0.0
2017-Aug-20 12:58N 51°28' E 002°40'0 0.0
2017-Aug-20 12:28N 51°28' E 002°40'0 0.0
2017-Aug-20 12:01N 51°28' E 002°40'0 0.0
2017-Aug-20 11:28N 51°28' E 002°40'0 0.0
2017-Aug-20 10:52N 51°28' E 002°40'0 0.0
2017-Aug-20 10:28N 51°28' E 002°40'0 0.3
2017-Aug-20 10:00N 51°28' E 002°40'510.7
2017-Aug-20 09:30N 51°26' E 002°32'815.4
2017-Aug-20 09:00N 51°20' E 002°24'815.7
2017-Aug-20 08:31N 51°16' E 002°14'714.9
2017-Aug-20 08:01N 51°12' E 002°03'714.3
2017-Aug-20 07:30N 51°09' E 001°53'713.5
2017-Aug-20 07:00N 51°05' E 001°44'713.3
2017-Aug-20 06:30N 50°60' E 001°37'713.0
2017-Aug-20 06:00N 50°55' E 001°31'6113.4
2017-Aug-20 01:26N 50°20' E 000°11'614.5
2017-Aug-20 01:00N 50°18' E 000°02'714.5
2017-Aug-20 00:30N 50°16' W 000°09'714.4
2017-Aug-20 00:00N 50°13' W 000°20'1714.3
2017-Aug-19 22:51N 50°07' W 000°44'514.8
2017-Aug-19 22:30N 50°05' W 000°51'815.3
2017-Aug-19 22:00N 50°01' W 001°01'815.4
2017-Aug-19 21:31N 49°57' W 001°11'815.9
2017-Aug-19 21:00N 49°53' W 001°21'816.3
2017-Aug-19 20:31N 49°48' W 001°32'714.9
2017-Aug-19 20:00N 49°45' W 001°42'510.1
2017-Aug-19 19:30N 49°47' W 001°49'816.7
2017-Aug-19 19:00N 49°52' W 001°59'918.3
2017-Aug-19 18:30N 49°54' W 002°13'2018.6
2017-Aug-19 17:26N 49°49' W 002°43'818.1
2017-Aug-19 17:00N 49°47' W 002°55'917.9
2017-Aug-19 16:29N 49°43' W 003°08'817.7
2017-Aug-19 16:01N 49°40' W 003°20'917.4
2017-Aug-19 15:30N 49°36' W 003°32'917.3
2017-Aug-19 14:59N 49°31' W 003°43'5816.8
2017-Aug-19 11:32N 49°02' W 005°00'016.1
2017-Aug-19 11:30N 49°01' W 005°01'815.8
2017-Aug-19 11:00N 48°57' W 005°11'815.6
2017-Aug-19 10:29N 48°53' W 005°22'715.8
2017-Aug-19 10:01N 48°49' W 005°31'52515.2
2017-Aug-17 23:22N 40°37' W 009°51'615.7
2017-Aug-17 23:00N 40°32' W 009°51'815.7
2017-Aug-17 22:30N 40°24' W 009°50'816.2
2017-Aug-17 22:00N 40°16' W 009°50'815.7
2017-Aug-17 21:30N 40°08' W 009°50'815.7
2017-Aug-17 21:00N 39°60' W 009°50'816.0
2017-Aug-17 20:30N 39°52' W 009°50'815.9
2017-Aug-17 20:00N 39°44' W 009°50'815.5
2017-Aug-17 19:31N 39°36' W 009°51'815.2
2017-Aug-17 19:00N 39°29' W 009°51'715.1
2017-Aug-17 18:30N 39°21' W 009°51'815.3
2017-Aug-17 18:00N 39°13' W 009°51'815.2
2017-Aug-17 17:30N 39°06' W 009°51'815.3
2017-Aug-17 17:00N 38°58' W 009°52'815.1
2017-Aug-17 16:30N 38°51' W 009°52'714.9
2017-Aug-17 16:00N 38°43' W 009°52'815.2
2017-Aug-17 15:31N 38°36' W 009°49'815.0
2017-Aug-17 15:00N 38°29' W 009°47'815.0
2017-Aug-17 14:30N 38°21' W 009°45'714.8
2017-Aug-17 14:00N 38°14' W 009°42'714.4
2017-Aug-17 13:30N 38°07' W 009°41'714.2
2017-Aug-17 13:00N 38°00' W 009°39'714.5
2017-Aug-17 12:30N 37°53' W 009°37'714.5
2017-Aug-17 12:00N 37°46' W 009°35'714.8
2017-Aug-17 11:30N 37°39' W 009°32'815.0
2017-Aug-17 10:59N 37°31' W 009°30'2315.4
2017-Aug-17 09:31N 37°09' W 009°24'115.5
2017-Aug-17 09:28N 37°08' W 009°24'815.5
2017-Aug-17 08:59N 37°01' W 009°22'815.6
2017-Aug-17 08:29N 36°53' W 009°20'715.3
2017-Aug-17 08:00N 36°47' W 009°14'1815.3
2017-Aug-17 06:49N 36°41' W 008°53'715.4
2017-Aug-17 06:21N 36°39' W 008°45'615.6
2017-Aug-17 05:59N 36°37' W 008°38'915.9
2017-Aug-17 05:26N 36°34' W 008°28'716.1
2017-Aug-17 04:59N 36°31' W 008°20'916.0
2017-Aug-17 04:26N 36°28' W 008°09'715.9
2017-Aug-17 04:00N 36°26' W 008°01'816.3
2017-Aug-17 03:29N 36°24' W 007°51'6415.7
2017-Aug-16 23:25N 36°04' W 006°36'4815.6
2017-Aug-16 20:20N 35°58' W 005°37'515.9
2017-Aug-16 20:00N 35°59' W 005°31'816.3
2017-Aug-16 19:30N 36°02' W 005°21'22215.9
2017-Aug-16 05:30N 37°17' W 000°59'816.6
2017-Aug-16 05:00N 37°22' W 000°51'816.5
2017-Aug-16 04:30N 37°27' W 000°44'816.0
2017-Aug-16 04:00N 37°33' W 000°36'815.8
2017-Aug-16 03:30N 37°39' W 000°30'816.2
2017-Aug-16 03:00N 37°46' W 000°24'916.4
2017-Aug-16 02:27N 37°53' W 000°18'716.4
2017-Aug-16 02:00N 37°59' W 000°13'1016.5
2017-Aug-16 01:24N 38°08' W 000°06'9016.2
2017-Aug-15 19:50N 39°26' E 000°52'1016.3
2017-Aug-15 19:13N 39°34' E 000°59'516.6
2017-Aug-15 18:54N 39°39' E 001°02'616.4
2017-Aug-15 18:30N 39°45' E 001°06'816.3
2017-Aug-15 17:59N 39°52' E 001°11'816.3
2017-Aug-15 17:30N 39°59' E 001°16'816.3
2017-Aug-15 17:00N 40°06' E 001°20'816.1
2017-Aug-15 16:30N 40°14' E 001°26'816.0
2017-Aug-15 16:00N 40°20' E 001°31'816.1
2017-Aug-15 15:30N 40°27' E 001°36'815.7
2017-Aug-15 15:00N 40°35' E 001°41'815.9
2017-Aug-15 14:30N 40°41' E 001°46'815.9
2017-Aug-15 14:00N 40°48' E 001°51'816.3
2017-Aug-15 13:30N 40°56' E 001°56'816.2
2017-Aug-15 13:00N 41°03' E 002°01'816.1
2017-Aug-15 12:29N 41°10' E 002°06'815.3
2017-Aug-15 11:58N 41°17' E 002°11'3 6.6
2017-Aug-15 11:28N 41°20' E 002°09'1 0.1
2017-Aug-15 06:10N 41°20' E 002°09'0 0.0
2017-Aug-15 05:52N 41°20' E 002°09'0 0.0
2017-Aug-15 05:10N 41°20' E 002°09'0 0.0
2017-Aug-15 04:04N 41°20' E 002°09'0 0.0
2017-Aug-15 03:46N 41°20' E 002°09'0 0.0
2017-Aug-15 03:22N 41°20' E 002°09'0 0.1
2017-Aug-15 02:59N 41°20' E 002°09'1 1.9
2017-Aug-15 02:30N 41°20' E 002°10'3 5.1
2017-Aug-15 01:57N 41°17' E 002°11'3 6.9
2017-Aug-15 01:30N 41°17' E 002°15'2 4.0
2017-Aug-15 01:00N 41°17' E 002°18'0 0.4
2017-Aug-15 00:30N 41°16' E 002°18'0 0.3
2017-Aug-14 23:50N 41°16' E 002°18'0 0.3
2017-Aug-14 23:21N 41°16' E 002°19'0 0.4
2017-Aug-14 22:59N 41°16' E 002°19'0 0.2
2017-Aug-14 22:22N 41°16' E 002°19'0 0.2
2017-Aug-14 22:00N 41°16' E 002°19'0 0.2
2017-Aug-14 21:30N 41°16' E 002°19'0 0.2
2017-Aug-14 20:59N 41°16' E 002°19'0 0.2
2017-Aug-14 20:30N 41°16' E 002°19'0 0.2
2017-Aug-14 20:00N 41°16' E 002°19'0 0.1
2017-Aug-14 19:30N 41°16' E 002°19'0 0.0
2017-Aug-14 19:00N 41°15' E 002°19'0 0.1
2017-Aug-14 18:30N 41°16' E 002°19'0 0.1
2017-Aug-14 18:00N 41°16' E 002°19'0 0.1
2017-Aug-14 17:30N 41°16' E 002°19'0 0.3
2017-Aug-14 17:00N 41°15' E 002°19'0 0.4
2017-Aug-14 16:30N 41°15' E 002°19'0 0.8
2017-Aug-14 15:58N 41°15' E 002°20'4 9.0
2017-Aug-14 15:30N 41°12' E 002°23'816.4
2017-Aug-14 15:00N 41°08' E 002°32'816.5
2017-Aug-14 14:30N 41°03' E 002°42'816.7
2017-Aug-14 14:00N 40°59' E 002°51'816.4
2017-Aug-14 13:30N 40°54' E 002°60'815.7
2017-Aug-14 13:00N 40°50' E 003°09'815.6
2017-Aug-14 12:30N 40°46' E 003°18'816.0
2017-Aug-14 12:00N 40°42' E 003°27'1616.0
2017-Aug-14 10:59N 40°33' E 003°45'3215.8
2017-Aug-14 08:58N 40°17' E 004°21'1616.1
2017-Aug-14 07:57N 40°10' E 004°40'1316.3
2017-Aug-14 07:07N 40°03' E 004°56'416.3
2017-Aug-14 06:54N 40°02' E 005°00'616.5
2017-Aug-14 06:30N 39°59' E 005°07'11516.5
2017-Aug-13 23:31N 39°05' E 007°19'015.5
2017-Aug-13 23:30N 39°04' E 007°19'6416.4
2017-Aug-13 19:36N 38°35' E 008°31'216.2
2017-Aug-13 19:30N 38°34' E 008°33'816.3
2017-Aug-13 18:59N 38°30' E 008°43'1516.5
2017-Aug-13 18:06N 38°23' E 008°59'116.5
2017-Aug-13 18:00N 38°22' E 009°01'816.4
2017-Aug-13 17:30N 38°18' E 009°11'23015.9
2017-Aug-13 03:01N 36°43' E 013°34'615.9
2017-Aug-13 02:38N 36°41' E 013°41'315.8
2017-Aug-13 02:28N 36°40' E 013°44'715.7
2017-Aug-13 02:00N 36°38' E 013°53'815.7
2017-Aug-13 01:30N 36°35' E 014°02'815.7
2017-Aug-13 01:00N 36°33' E 014°12'815.6
2017-Aug-13 00:30N 36°32' E 014°21'815.2
2017-Aug-13 00:00N 36°30' E 014°30'714.9
2017-Aug-12 23:30N 36°28' E 014°39'714.7
2017-Aug-12 23:00N 36°24' E 014°47'814.7
2017-Aug-12 22:30N 36°22' E 014°56'15615.7
2017-Aug-12 12:34N 35°40' E 018°02'14216.1
2017-Aug-12 03:44N 35°01' E 020°50'516.0
2017-Aug-12 03:26N 34°60' E 020°55'2215.9
2017-Aug-12 02:03N 34°54' E 021°21'115.9
2017-Aug-12 01:59N 34°54' E 021°22'  

Dump ship's entire track history